Wendover, UT

10:00 AM MDT on May 27, 2015 (GMT -0600)
MesoWest | | Change Station
CLOSE
Current Station
Personal Weather Station
Location: Wendover, UT
Elevation: 4270 ft
Nearby Weather Stations

Elev 4270 ft 40.74 °N, 114.02 °W | Updated 40 minutes ago

Clear
Clear
56 °F
Feels Like 56 °F
N
4
Wind Variable Wind from NE
Gusts 8.0 mph

Today
High -- | Low -- °F
--% Chance of Precip.
Yesterday
High -- | Low -- °F
Precip. -- in
6:09 AM 8:57 PM
Waxing Gibbous, 68% visible
Pressure 30.09 in
Visibility 10.0 miles
Clouds Clear
Dew Point 49 °F
Humidity 78%
Rainfall in
Snow Depth Not available.
UV 6 out of 12
Pollen 5.60 out of 12
Air Quality Not available.
Flu Activity Sporadic
METAR KENV 271555Z AUTO 04004KT 10SM CLR 13/09 A3009 RMK AO1

More Conditions Fewer Conditions

Pressure 30.09 in
Visibility 10.0 miles
Clouds Clear
Dew Point 49 °F
Humidity 78%
Rainfall in
Snow Depth Not available.
UV 6 out of 12
Pollen 5.60 out of 12
Air Quality Not available.
Flu Activity Sporadic
METAR KENV 271555Z AUTO 04004KT 10SM CLR 13/09 A3009 RMK AO1

More Conditions Fewer Conditions

Nowcast | as of 8:32 am MDT on May 27, 2015

An area showers and isolated thunderstorms extending from Tooele County to the Great Salt Lake will move into the northern Wasatch front this morning. The strongest storms at 830 am were located over the Great Salt Lake in eastern Box Elder County spreading into western Weber and Cache County through 1030 am. Expect brief heavy rain...occasional cloud to ground lightning...strong gusty winds and small hail.

×

10-Day Weather Forecast

Almanac

Astronomy

May. 27, 2015 Rise Set
Actual Time
Civil Twilight
Nautical Twilight
Astronomical Twilight
Moon
Length of Visible Light
Length of Day
Tomorrow will be .
, % of the Moon is Illuminated

Today's Extremes

State Highs State Lows

Community

WunderPhotos

Upload Photos

1,824,702 photos uploaded!

WunderBlogs® & News

Nearby

Air Quality

  Air Quality AQ Index Pollutant
Not available.

Snow Depth

Station Depth Elevation

Earthquake Activity

City Distance Mag. Time & Date
Minimum magnitude displayed is 2.5.

Coastal Water Temperatures

Place Temperature

Stations

Nearby Weather Stations

Station Location Temp. Windchill Dew Point Humidity Wind Precip. Elev Updated Type